createdAt,value
2022-11-15T00:00:08.473Z,9.309061
2022-11-15T00:01:08.379Z,9.309111
2022-11-15T00:02:08.527Z,9.309067
2022-11-15T00:03:08.331Z,9.309081
2022-11-15T00:04:08.405Z,9.309053
2022-11-15T00:05:08.321Z,9.309125
2022-11-15T00:06:08.302Z,9.309155
2022-11-15T00:07:08.353Z,9.309102
2022-11-15T00:08:08.377Z,9.309068
2022-11-15T00:09:08.348Z,9.309096
2022-11-15T00:10:08.293Z,9.309074
2022-11-15T00:11:08.395Z,9.309011
2022-11-15T00:12:08.429Z,9.309015
2022-11-15T00:13:08.345Z,9.309172
2022-11-15T00:14:08.360Z,9.309030
2022-11-15T00:15:08.391Z,9.309080
2022-11-15T00:16:08.397Z,9.309110
2022-11-15T00:17:08.326Z,9.309051
2022-11-15T00:18:08.304Z,9.309039
2022-11-15T00:19:08.303Z,9.309010
2022-11-15T00:20:09.412Z,9.309028
2022-11-15T00:21:08.333Z,9.309013
2022-11-15T00:22:08.188Z,9.308987
2022-11-15T00:23:08.219Z,9.308996
2022-11-15T00:24:08.284Z,9.309065
2022-11-15T00:25:08.219Z,9.309122
2022-11-15T00:26:08.228Z,9.309114
2022-11-15T00:27:09.167Z,9.308978
2022-11-15T00:28:08.148Z,9.308945
2022-11-15T00:29:08.217Z,9.308926
2022-11-15T00:30:08.322Z,9.308977
2022-11-15T00:31:08.479Z,9.309054
2022-11-15T00:32:08.272Z,9.309058
2022-11-15T00:33:08.210Z,9.309011
2022-11-15T00:34:08.241Z,9.308971
2022-11-15T00:35:08.188Z,9.308992
2022-11-15T00:36:08.203Z,9.309074
2022-11-15T00:37:08.221Z,9.309054
2022-11-15T00:38:08.200Z,9.308868
2022-11-15T00:39:08.181Z,9.309017
2022-11-15T00:40:08.169Z,9.309044
2022-11-15T00:41:09.962Z,9.308987
2022-11-15T00:42:09.135Z,9.308928
2022-11-15T00:43:08.139Z,9.308875
2022-11-15T00:44:08.034Z,9.308958
2022-11-15T00:45:08.029Z,9.308981
2022-11-15T00:46:08.700Z,9.308953
2022-11-15T00:47:08.087Z,9.309016
2022-11-15T00:48:08.137Z,9.308902
2022-11-15T00:49:08.157Z,9.308958
2022-11-15T00:50:10.715Z,9.308976
2022-11-15T00:51:08.979Z,9.309014
2022-11-15T00:52:08.102Z,9.308945
2022-11-15T00:53:08.176Z,9.308931
2022-11-15T00:54:08.039Z,9.308968
2022-11-15T00:55:08.035Z,9.308994
2022-11-15T00:56:08.058Z,9.308978
2022-11-15T00:57:08.057Z,9.308858
2022-11-15T00:58:08.105Z,9.309022
2022-11-15T00:59:08.047Z,9.309097
2022-11-15T01:00:08.023Z,9.309055
2022-11-15T01:01:08.180Z,9.309041
2022-11-15T01:02:07.863Z,9.309042
2022-11-15T01:03:07.878Z,9.309064
2022-11-15T01:04:07.934Z,9.309113
2022-11-15T01:05:07.928Z,9.309067
2022-11-15T01:06:07.891Z,9.309132
2022-11-15T01:07:08.037Z,9.309129
2022-11-15T01:08:07.971Z,9.309114
2022-11-15T01:09:07.993Z,9.309048
2022-11-15T01:10:08.003Z,9.309040
2022-11-15T01:11:07.941Z,9.309008
2022-11-15T01:12:08.909Z,9.309090
2022-11-15T01:13:07.917Z,9.309078
2022-11-15T01:14:08.080Z,9.309122
2022-11-15T01:15:07.949Z,9.309175
2022-11-15T01:16:07.927Z,9.309116
2022-11-15T01:17:07.894Z,9.309153
2022-11-15T01:18:07.858Z,9.309134
2022-11-15T01:19:08.795Z,9.309113
2022-11-15T01:20:07.859Z,9.309065
2022-11-15T01:21:07.854Z,9.308977
2022-11-15T01:22:07.891Z,9.308972
2022-11-15T01:23:07.759Z,9.309133
2022-11-15T01:24:07.774Z,9.309204
2022-11-15T01:25:07.911Z,9.309067
2022-11-15T01:26:07.815Z,9.309031
2022-11-15T01:27:07.858Z,9.309133
2022-11-15T01:28:07.858Z,9.309204
2022-11-15T01:29:07.824Z,9.309046
2022-11-15T01:30:07.916Z,9.309048
2022-11-15T01:31:07.798Z,9.309019
2022-11-15T01:32:07.776Z,9.309052
2022-11-15T01:33:07.846Z,9.309063
2022-11-15T01:34:07.798Z,9.308974
2022-11-15T01:35:07.857Z,9.309057
2022-11-15T01:36:08.083Z,9.309063
2022-11-15T01:37:07.828Z,9.309142
2022-11-15T01:38:08.217Z,9.308948
2022-11-15T01:39:08.755Z,9.309173
2022-11-15T01:40:07.679Z,9.309226
2022-11-15T01:41:07.718Z,9.309153
2022-11-15T01:42:07.634Z,9.309123
2022-11-15T01:43:07.744Z,9.309183
2022-11-15T01:44:07.622Z,9.309131
2022-11-15T01:45:07.639Z,9.309157
2022-11-15T01:46:07.789Z,9.309205
2022-11-15T01:47:07.676Z,9.309221
2022-11-15T01:48:07.669Z,9.309135
2022-11-15T01:49:07.657Z,9.309125
2022-11-15T01:50:07.648Z,9.309195
2022-11-15T01:51:07.652Z,9.309110
2022-11-15T01:52:07.662Z,9.309113
2022-11-15T01:53:07.650Z,9.309182
2022-11-15T01:54:07.730Z,9.309085
2022-11-15T01:55:07.675Z,9.309042
2022-11-15T01:56:07.675Z,9.309042
2022-11-15T01:57:07.554Z,9.309113
2022-11-15T01:58:07.539Z,9.309074
2022-11-15T01:59:07.581Z,9.309102
2022-11-15T02:00:07.543Z,9.309114
2022-11-15T02:01:07.547Z,9.309161
2022-11-15T02:02:07.519Z,9.309130
2022-11-15T02:03:07.493Z,9.309081
2022-11-15T02:04:07.574Z,9.309040
2022-11-15T02:05:07.629Z,9.309001
2022-11-15T02:06:07.569Z,9.308996
2022-11-15T02:07:07.575Z,9.309076
2022-11-15T02:08:07.542Z,9.309071
2022-11-15T02:09:07.537Z,9.309216
2022-11-15T02:10:07.523Z,9.309108
2022-11-15T02:11:07.529Z,9.309064
2022-11-15T02:12:07.562Z,9.308910
2022-11-15T02:13:07.500Z,9.308874
2022-11-15T02:14:07.541Z,9.308883
2022-11-15T02:15:07.514Z,9.309088
2022-11-15T02:16:07.453Z,9.308944
2022-11-15T02:17:07.406Z,9.309054
2022-11-15T02:18:07.391Z,9.308863
2022-11-15T02:19:07.520Z,9.308768
2022-11-15T02:20:08.412Z,9.308789
2022-11-15T02:21:07.385Z,9.309131
2022-11-15T02:22:07.435Z,9.309047
2022-11-15T02:23:07.502Z,9.308972
2022-11-15T02:24:07.443Z,9.309003
2022-11-15T02:25:07.593Z,9.308946
2022-11-15T02:26:07.388Z,9.309180
2022-11-15T02:27:07.392Z,9.309104
2022-11-15T02:28:07.441Z,9.308983
2022-11-15T02:29:07.385Z,9.308929
2022-11-15T02:30:07.454Z,9.308937
2022-11-15T02:31:07.383Z,9.308898
2022-11-15T02:32:07.399Z,9.308889
2022-11-15T02:33:07.371Z,9.308902
2022-11-15T02:34:07.370Z,9.308981
2022-11-15T02:35:07.357Z,9.309027
2022-11-15T02:36:39.489Z,9.308985
2022-11-15T02:37:40.293Z,9.308985
2022-11-15T02:38:40.273Z,9.309030
2022-11-15T02:39:40.239Z,9.308977
2022-11-15T02:40:40.226Z,9.309015
2022-11-15T02:41:40.364Z,9.308983
2022-11-15T02:42:40.435Z,9.308941
2022-11-15T02:43:40.334Z,9.308968
2022-11-15T02:44:39.285Z,9.308906
2022-11-15T02:45:40.308Z,9.308855
2022-11-15T02:46:40.680Z,9.308913
2022-11-15T02:47:40.290Z,9.308916
2022-11-15T02:48:07.166Z,9.309001
2022-11-15T02:49:07.225Z,9.309010
2022-11-15T02:50:07.268Z,9.308992
2022-11-15T02:51:07.252Z,9.309040
2022-11-15T02:52:07.255Z,9.309156
2022-11-15T02:53:07.217Z,9.308997
2022-11-15T02:54:08.222Z,9.308791
2022-11-15T02:55:07.152Z,9.308899
2022-11-15T02:56:07.101Z,9.308999
2022-11-15T02:57:07.151Z,9.309088
2022-11-15T02:58:07.116Z,9.309109
2022-11-15T02:59:07.193Z,9.309142
2022-11-15T03:00:07.180Z,9.309132
2022-11-15T03:01:07.186Z,9.309039
2022-11-15T03:02:08.140Z,9.309119
2022-11-15T03:03:07.236Z,9.309076
2022-11-15T03:04:07.157Z,9.309045
2022-11-15T03:05:07.259Z,9.309024
2022-11-15T03:06:07.140Z,9.309025
2022-11-15T03:07:07.245Z,9.308997
2022-11-15T03:08:07.326Z,9.309009
2022-11-15T03:09:07.208Z,9.309016
2022-11-15T03:10:39.123Z,9.308988
2022-11-15T03:11:07.010Z,9.308970
2022-11-15T03:12:07.108Z,9.309037
2022-11-15T03:13:07.144Z,9.309004
2022-11-15T03:14:07.084Z,9.309058
2022-11-15T03:15:07.095Z,9.308985
2022-11-15T03:16:07.060Z,9.308967
2022-11-15T03:17:41.586Z,9.308929
2022-11-15T03:18:08.005Z,9.308930
2022-11-15T03:19:07.032Z,9.308953
2022-11-15T03:20:06.917Z,9.308930
2022-11-15T03:21:06.924Z,9.308971
2022-11-15T03:22:06.893Z,9.309004
2022-11-15T03:23:06.940Z,9.309005
2022-11-15T03:24:06.958Z,9.308974
2022-11-15T03:25:06.915Z,9.309023
2022-11-15T03:26:06.917Z,9.309078
2022-11-15T03:27:06.885Z,9.309084
2022-11-15T03:28:06.876Z,9.308977
2022-11-15T03:29:07.006Z,9.309096
2022-11-15T03:30:06.991Z,9.309037
2022-11-15T03:31:06.972Z,9.309022
2022-11-15T03:32:07.019Z,9.309039
2022-11-15T03:33:06.957Z,9.309007
2022-11-15T03:34:06.970Z,9.308971
2022-11-15T03:35:06.973Z,9.309028
2022-11-15T03:36:06.940Z,9.309001
2022-11-15T03:37:06.910Z,9.309036
2022-11-15T03:38:06.921Z,9.309088
2022-11-15T03:39:06.903Z,9.309084
2022-11-15T03:40:06.948Z,9.309148
2022-11-15T03:41:06.913Z,9.309030
2022-11-15T03:42:06.894Z,9.308939
2022-11-15T03:43:06.828Z,9.308975
2022-11-15T03:44:06.858Z,9.309001
2022-11-15T03:45:06.800Z,9.308981
2022-11-15T03:46:06.844Z,9.308939
2022-11-15T03:47:06.769Z,9.309027
2022-11-15T03:48:06.818Z,9.308982
2022-11-15T03:49:06.823Z,9.309025
2022-11-15T03:50:06.836Z,9.308967
2022-11-15T03:51:06.917Z,9.309010
2022-11-15T03:52:06.801Z,9.308990
2022-11-15T03:53:06.904Z,9.309023
2022-11-15T03:54:06.834Z,9.309040
2022-11-15T03:55:06.882Z,9.309103
2022-11-15T03:56:06.743Z,9.309081
2022-11-15T03:57:06.844Z,9.309124
2022-11-15T03:58:06.783Z,9.309128
2022-11-15T03:59:06.745Z,9.309125
2022-11-15T04:00:06.775Z,9.309105
2022-11-15T04:01:06.793Z,9.309236
2022-11-15T04:02:06.684Z,9.309210
2022-11-15T04:03:06.736Z,9.309245
2022-11-15T04:04:06.628Z,9.309130
2022-11-15T04:05:06.623Z,9.309074
2022-11-15T04:06:06.725Z,9.309039
2022-11-15T04:07:06.816Z,9.309036
2022-11-15T04:08:06.714Z,9.309097
2022-11-15T04:09:06.671Z,9.309114
2022-11-15T04:10:06.754Z,9.309188
2022-11-15T04:11:06.688Z,9.309061
2022-11-15T04:12:06.661Z,9.309084
2022-11-15T04:13:06.690Z,9.309059
2022-11-15T04:14:06.701Z,9.309067
2022-11-15T04:15:06.687Z,9.309241
2022-11-15T04:16:06.727Z,9.309153
2022-11-15T04:17:06.590Z,9.309016
2022-11-15T04:18:06.666Z,9.309108
2022-11-15T04:19:06.650Z,9.309161
2022-11-15T04:20:06.498Z,9.309096
2022-11-15T04:21:06.496Z,9.309105
2022-11-15T04:22:07.428Z,9.309132
2022-11-15T04:23:06.534Z,9.309064
2022-11-15T04:24:06.566Z,9.309029
2022-11-15T04:25:06.494Z,9.309182
2022-11-15T04:26:06.471Z,9.309229
2022-11-15T04:27:06.499Z,9.309052
2022-11-15T04:28:06.577Z,9.309037
2022-11-15T04:29:06.574Z,9.309133
2022-11-15T04:30:06.529Z,9.309017
2022-11-15T04:31:06.537Z,9.309031
2022-11-15T04:32:06.497Z,9.309086
2022-11-15T04:33:06.497Z,9.309153
2022-11-15T04:34:06.539Z,9.309104
2022-11-15T04:35:06.571Z,9.309077
2022-11-15T04:36:06.463Z,9.308930
2022-11-15T04:37:06.525Z,9.308945
2022-11-15T04:38:06.455Z,9.308999
2022-11-15T04:39:06.522Z,9.309149
2022-11-15T04:40:06.921Z,9.309125
2022-11-15T04:41:06.447Z,9.308973
2022-11-15T04:42:06.361Z,9.308992
2022-11-15T04:43:06.384Z,9.308898
2022-11-15T04:44:06.366Z,9.309039
2022-11-15T04:45:06.538Z,9.309069
2022-11-15T04:46:06.371Z,9.308999
2022-11-15T04:47:06.335Z,9.309050
2022-11-15T04:48:06.327Z,9.309228
2022-11-15T04:49:06.324Z,9.309289
2022-11-15T04:50:06.385Z,9.308993
2022-11-15T04:51:06.406Z,9.308862
2022-11-15T04:52:06.343Z,9.308819
2022-11-15T04:53:06.349Z,9.308949
2022-11-15T04:54:06.339Z,9.308813
2022-11-15T04:55:08.317Z,9.308799
2022-11-15T04:56:07.375Z,9.308943
2022-11-15T04:57:06.397Z,9.308947
2022-11-15T04:58:06.407Z,9.308899
2022-11-15T04:59:06.336Z,9.309016
2022-11-15T05:00:06.378Z,9.309105
2022-11-15T05:01:06.276Z,9.309061
2022-11-15T05:02:06.263Z,9.309149
2022-11-15T05:03:06.234Z,9.309077
2022-11-15T05:04:06.293Z,9.309149
2022-11-15T05:05:06.231Z,9.309140
2022-11-15T05:06:06.192Z,9.309155
2022-11-15T05:07:06.246Z,9.309151
2022-11-15T05:08:06.140Z,9.309155
2022-11-15T05:09:06.269Z,9.309102
2022-11-15T05:10:06.254Z,9.309055
2022-11-15T05:11:06.249Z,9.309036
2022-11-15T05:12:06.266Z,9.308990
2022-11-15T05:13:06.244Z,9.308970
2022-11-15T05:14:06.206Z,9.309076
2022-11-15T05:15:06.247Z,9.308998
2022-11-15T05:16:06.193Z,9.309038
2022-11-15T05:17:06.222Z,9.309026
2022-11-15T05:18:06.228Z,9.309023
2022-11-15T05:19:06.239Z,9.309058
2022-11-15T05:20:06.143Z,9.308998
2022-11-15T05:21:06.262Z,9.308999
2022-11-15T05:22:06.073Z,9.309115
2022-11-15T05:23:06.138Z,9.309103
2022-11-15T05:24:06.064Z,9.309073
2022-11-15T05:25:06.054Z,9.309045
2022-11-15T05:26:09.142Z,9.309051
2022-11-15T05:27:07.196Z,9.309061
2022-11-15T05:28:06.093Z,9.309094
2022-11-15T05:29:06.112Z,9.309158
2022-11-15T05:30:06.090Z,9.309082
2022-11-15T05:31:06.058Z,9.309078
2022-11-15T05:32:06.079Z,9.309097
2022-11-15T05:33:06.112Z,9.309105
2022-11-15T05:34:06.166Z,9.309054
2022-11-15T05:35:06.026Z,9.309170
2022-11-15T05:36:06.078Z,9.309158
2022-11-15T05:37:05.955Z,9.309058
2022-11-15T05:38:05.985Z,9.309073
2022-11-15T05:39:06.049Z,9.308993
2022-11-15T05:40:05.993Z,9.309030
2022-11-15T05:41:05.922Z,9.309023
2022-11-15T05:42:05.910Z,9.309042
2022-11-15T05:43:05.947Z,9.309110
2022-11-15T05:44:06.054Z,9.309074
2022-11-15T05:45:06.120Z,9.309058
2022-11-15T05:46:05.985Z,9.309033
2022-11-15T05:47:05.984Z,9.308959
2022-11-15T05:48:05.970Z,9.308977
2022-11-15T05:49:05.978Z,9.309085
2022-11-15T05:50:05.974Z,9.309033
2022-11-15T05:51:06.054Z,9.308990
2022-11-15T05:52:05.904Z,9.309018
2022-11-15T05:53:05.937Z,9.309036
2022-11-15T05:54:05.929Z,9.309058
2022-11-15T05:55:05.900Z,9.309066
2022-11-15T05:56:05.938Z,9.309024
2022-11-15T05:57:05.897Z,9.308969
2022-11-15T05:58:05.882Z,9.308952
2022-11-15T05:59:05.898Z,9.308998
2022-11-15T06:00:05.851Z,9.309008
2022-11-15T06:01:05.760Z,9.309030
2022-11-15T06:02:05.953Z,9.309003
2022-11-15T06:03:05.853Z,9.309036
2022-11-15T06:04:05.887Z,9.309082
2022-11-15T06:05:05.768Z,9.309096
2022-11-15T06:06:05.830Z,9.309155
2022-11-15T06:07:05.965Z,9.309127
2022-11-15T06:08:05.828Z,9.309092
2022-11-15T06:09:05.796Z,9.309019
2022-11-15T06:10:05.817Z,9.309087
2022-11-15T06:11:05.792Z,9.309012
2022-11-15T06:12:05.810Z,9.308990
2022-11-15T06:13:05.820Z,9.309001
2022-11-15T06:14:05.748Z,9.308993
2022-11-15T06:15:05.752Z,9.309094
2022-11-15T06:16:05.766Z,9.309100
2022-11-15T06:17:11.018Z,9.309077
2022-11-15T06:18:07.778Z,9.309022
2022-11-15T06:19:05.675Z,9.309013
2022-11-15T06:20:05.642Z,9.309002
2022-11-15T06:21:05.644Z,9.309096
2022-11-15T06:22:05.634Z,9.309031
2022-11-15T06:23:05.834Z,9.309034
2022-11-15T06:27:03.991Z,9.309060
2022-11-15T06:28:03.971Z,9.309109
2022-11-15T06:29:03.938Z,9.309119
2022-11-15T06:30:04.037Z,9.309134
2022-11-15T06:31:03.981Z,9.309014
2022-11-15T06:32:03.936Z,9.308995
2022-11-15T06:33:04.000Z,9.309061
2022-11-15T06:34:03.981Z,9.308979
2022-11-15T06:35:03.901Z,9.309209
2022-11-15T06:36:03.866Z,9.309091
2022-11-15T06:37:03.881Z,9.309109
2022-11-15T06:38:03.941Z,9.309127
2022-11-15T06:39:03.880Z,9.309104
2022-11-15T06:40:03.871Z,9.309126
2022-11-15T06:41:03.783Z,9.309055
2022-11-15T06:42:03.793Z,9.309118
2022-11-15T06:43:03.815Z,9.309132
2022-11-15T06:44:03.709Z,9.309171
2022-11-15T06:45:03.845Z,9.309095
2022-11-15T06:46:03.766Z,9.309167
2022-11-15T06:47:03.751Z,9.309053
2022-11-15T06:48:03.726Z,9.309108
2022-11-15T06:49:08.352Z,9.309091
2022-11-15T06:50:05.935Z,9.309095
2022-11-15T06:51:03.797Z,9.309071
2022-11-15T06:52:03.829Z,9.309071
2022-11-15T06:53:03.779Z,9.309159
2022-11-15T06:54:03.854Z,9.309045
2022-11-15T06:55:03.842Z,9.308975
2022-11-15T06:56:03.748Z,9.309082
2022-11-15T06:57:03.740Z,9.309110
2022-11-15T06:58:03.752Z,9.309048
2022-11-15T06:59:03.711Z,9.309006
2022-11-15T07:00:03.758Z,9.309060
2022-11-15T07:01:03.816Z,9.309052
2022-11-15T07:02:03.614Z,9.308951
2022-11-15T07:03:03.772Z,9.308810
2022-11-15T07:04:03.618Z,9.308981
2022-11-15T07:05:03.650Z,9.309093
2022-11-15T07:06:07.407Z,9.309112
2022-11-15T07:07:04.773Z,9.309299
2022-11-15T07:08:03.589Z,9.309113
2022-11-15T07:09:03.653Z,9.308992
2022-11-15T07:10:03.670Z,9.309069
2022-11-15T07:11:03.668Z,9.309197
2022-11-15T07:12:07.646Z,9.309280
2022-11-15T07:13:04.687Z,9.309359
2022-11-15T07:14:03.624Z,9.309259
2022-11-15T07:15:03.661Z,9.309083
2022-11-15T07:16:03.595Z,9.309085
2022-11-15T07:17:03.693Z,9.309261
2022-11-15T07:18:03.646Z,9.309466
2022-11-15T07:19:03.682Z,9.309317
2022-11-15T07:20:03.556Z,9.309240
2022-11-15T07:21:03.568Z,9.309128
2022-11-15T07:22:03.458Z,9.308917
2022-11-15T07:23:03.479Z,9.308999
2022-11-15T07:24:03.446Z,9.309036
2022-11-15T07:25:03.574Z,9.309045
2022-11-15T07:26:03.484Z,9.309208
2022-11-15T07:27:03.586Z,9.309042
2022-11-15T07:28:03.616Z,9.308922
2022-11-15T07:29:03.512Z,9.309089
2022-11-15T07:30:03.623Z,9.309161
2022-11-15T07:31:03.492Z,9.309187
2022-11-15T07:32:03.507Z,9.309136
2022-11-15T07:33:03.464Z,9.309049
2022-11-15T07:34:03.560Z,9.308986
2022-11-15T07:35:03.454Z,9.308962
2022-11-15T07:36:03.477Z,9.309106
2022-11-15T07:37:03.480Z,9.309176
2022-11-15T07:38:03.490Z,9.309187
2022-11-15T07:39:03.447Z,9.309207
2022-11-15T07:40:03.338Z,9.309143
2022-11-15T07:41:03.386Z,9.309114
2022-11-15T07:42:03.293Z,9.309126
2022-11-15T07:43:03.335Z,9.309122
2022-11-15T07:44:03.317Z,9.308964
2022-11-15T07:45:03.354Z,9.309080
2022-11-15T07:46:03.297Z,9.309037
2022-11-15T07:47:03.270Z,9.309159
2022-11-15T07:48:03.299Z,9.309128
2022-11-15T07:49:03.308Z,9.309153
2022-11-15T07:50:03.465Z,9.309165
2022-11-15T07:51:03.353Z,9.309151
2022-11-15T07:52:03.336Z,9.309108
2022-11-15T07:53:03.322Z,9.309111
2022-11-15T07:54:03.333Z,9.309098
2022-11-15T07:55:03.348Z,9.309188
2022-11-15T07:56:03.460Z,9.309240
2022-11-15T07:57:07.252Z,9.309228
2022-11-15T07:58:04.320Z,9.309262
2022-11-15T07:59:03.364Z,9.309257
2022-11-15T08:00:03.331Z,9.309205
2022-11-15T08:01:03.370Z,9.309174
2022-11-15T08:02:03.397Z,9.309150
2022-11-15T08:03:03.219Z,9.309115
2022-11-15T08:04:03.254Z,9.309104
2022-11-15T08:05:03.204Z,9.309165
2022-11-15T08:06:03.159Z,9.309183
2022-11-15T08:07:03.282Z,9.309214
2022-11-15T08:08:03.159Z,9.309155
2022-11-15T08:09:03.291Z,9.309204
2022-11-15T08:10:03.239Z,9.309160
2022-11-15T08:11:03.236Z,9.309115
2022-11-15T08:12:03.288Z,9.309114
2022-11-15T08:13:03.335Z,9.309150
2022-11-15T08:14:03.601Z,9.309169
2022-11-15T08:15:03.194Z,9.309133
2022-11-15T08:16:03.340Z,9.309136
2022-11-15T08:17:03.220Z,9.309168
2022-11-15T08:18:03.293Z,9.309162
2022-11-15T08:32:50.194Z,9.309179
2022-11-15T08:33:18.147Z,9.309141
2022-11-15T08:34:18.100Z,9.309175
2022-11-15T08:35:18.166Z,9.309098
2022-11-15T08:36:18.315Z,9.309132
2022-11-15T08:37:18.150Z,9.309147
2022-11-15T08:38:18.139Z,9.309150
2022-11-15T08:39:18.207Z,9.309170
2022-11-15T08:40:18.305Z,9.309064
2022-11-15T08:41:18.193Z,9.309132
2022-11-15T08:42:19.980Z,9.309172
2022-11-15T08:43:19.171Z,9.309178
2022-11-15T08:44:18.221Z,9.309061
2022-11-15T08:45:18.149Z,9.309091
2022-11-15T08:46:18.197Z,9.309130
2022-11-15T08:47:18.165Z,9.309146
2022-11-15T08:48:18.092Z,9.309160
2022-11-15T08:49:18.093Z,9.309159
2022-11-15T08:50:18.126Z,9.309129
2022-11-15T08:51:18.140Z,9.309101
2022-11-15T08:52:18.161Z,9.309076
2022-11-15T08:53:18.155Z,9.309105
2022-11-15T08:54:18.081Z,9.309125
2022-11-15T08:55:18.056Z,9.309136
2022-11-15T08:56:17.995Z,9.309175
2022-11-15T08:57:17.958Z,9.309164
2022-11-15T08:58:18.014Z,9.309118
2022-11-15T08:59:18.096Z,9.309151
2022-11-15T09:00:17.937Z,9.309091
2022-11-15T09:01:18.681Z,9.309118
2022-11-15T09:02:18.934Z,9.309122
2022-11-15T09:03:17.927Z,9.309117
2022-11-15T09:04:18.007Z,9.309190
2022-11-15T09:05:17.997Z,9.309190
2022-11-15T09:06:17.987Z,9.309175
2022-11-15T09:07:18.027Z,9.309159
2022-11-15T09:08:47.041Z,9.309059
2022-11-15T09:09:19.941Z,9.309082
2022-11-15T09:10:17.995Z,9.309050
2022-11-15T09:11:17.949Z,9.309032
2022-11-15T09:12:17.954Z,9.309058
2022-11-15T09:13:17.958Z,9.309128
2022-11-15T09:14:18.025Z,9.309156
2022-11-15T09:15:17.896Z,9.309129
2022-11-15T09:16:17.929Z,9.309160
2022-11-15T09:17:23.194Z,9.309153
2022-11-15T09:18:22.240Z,9.309093
2022-11-15T09:19:17.948Z,9.309179
2022-11-15T09:20:17.989Z,9.309080
2022-11-15T09:21:17.780Z,9.309033
2022-11-15T09:22:17.756Z,9.309142
2022-11-15T09:23:17.850Z,9.308933
2022-11-15T09:24:17.933Z,9.308982
2022-11-15T09:25:17.912Z,9.308961
2022-11-15T09:26:17.998Z,9.309065
2022-11-15T09:27:17.841Z,9.309054
2022-11-15T09:28:17.852Z,9.308938
2022-11-15T09:29:17.848Z,9.308980
2022-11-15T09:30:17.835Z,9.309060
2022-11-15T09:31:21.025Z,9.308979
2022-11-15T09:32:18.873Z,9.308956
2022-11-15T09:33:17.773Z,9.309088
2022-11-15T09:34:17.830Z,9.309033
2022-11-15T09:35:17.795Z,9.309007
2022-11-15T09:36:17.835Z,9.308861
2022-11-15T09:37:17.763Z,9.309029
2022-11-15T09:38:17.814Z,9.309114
2022-11-15T09:39:17.689Z,9.308937
2022-11-15T09:40:17.669Z,9.308943
2022-11-15T09:41:17.679Z,9.308923
2022-11-15T09:42:17.809Z,9.308829
2022-11-15T09:43:17.652Z,9.308911
2022-11-15T09:44:21.170Z,9.309022
2022-11-15T09:45:19.662Z,9.309082
2022-11-15T09:46:17.735Z,9.309071
2022-11-15T09:47:17.818Z,9.309365
2022-11-15T09:48:17.682Z,9.309014
2022-11-15T09:49:17.765Z,9.309051
2022-11-15T09:50:17.661Z,9.309048
2022-11-15T09:51:17.839Z,9.308979
2022-11-15T09:52:17.699Z,9.309107
2022-11-15T09:53:17.727Z,9.309112
2022-11-15T09:55:19.622Z,9.309084
2022-11-15T09:56:17.704Z,9.309058
2022-11-15T09:57:17.625Z,9.309098
2022-11-15T09:58:17.696Z,9.309043
2022-11-15T09:59:17.700Z,9.309053
2022-11-15T10:00:44.777Z,9.309099
2022-11-15T10:01:19.543Z,9.309103
2022-11-15T10:02:17.526Z,9.309079
2022-11-15T10:03:17.527Z,9.309015
2022-11-15T10:04:17.576Z,9.309077
2022-11-15T10:05:17.505Z,9.309038
2022-11-15T10:06:17.488Z,9.309093
2022-11-15T10:07:17.583Z,9.309130
2022-11-15T10:08:17.555Z,9.309128
2022-11-15T10:09:22.565Z,9.309146
2022-11-15T10:10:19.567Z,9.309123
2022-11-15T10:12:19.452Z,9.309113
2022-11-15T10:13:17.578Z,9.309114
2022-11-15T10:14:17.724Z,9.309115
2022-11-15T10:15:17.507Z,9.309123
2022-11-15T10:16:17.487Z,9.309094
2022-11-15T10:17:17.497Z,9.309104
2022-11-15T10:18:17.500Z,9.309096
2022-11-15T10:19:17.483Z,9.309112
2022-11-15T10:20:17.497Z,9.309095
2022-11-15T10:21:17.480Z,9.309144
2022-11-15T10:22:17.499Z,9.309132
2022-11-15T10:23:18.467Z,9.309136
2022-11-15T10:24:17.471Z,9.309099
2022-11-15T10:25:17.494Z,9.309167
2022-11-15T10:26:17.429Z,9.309134
2022-11-15T10:27:17.460Z,9.309094
2022-11-15T10:28:17.499Z,9.309101
2022-11-15T10:29:17.328Z,9.309163
2022-11-15T10:30:17.346Z,9.309177
2022-11-15T10:31:17.478Z,9.309104
2022-11-15T10:32:17.377Z,9.309078
2022-11-15T10:33:17.324Z,9.309098
2022-11-15T10:34:17.370Z,9.309006
2022-11-15T10:35:17.526Z,9.309049
2022-11-15T10:36:17.421Z,9.309031
2022-11-15T10:37:17.466Z,9.309048
2022-11-15T10:38:17.492Z,9.309030
2022-11-15T10:39:17.675Z,9.309022
2022-11-15T10:40:17.373Z,9.309011
2022-11-15T10:41:17.378Z,9.309056
2022-11-15T10:42:18.051Z,9.308999
2022-11-15T10:43:18.483Z,9.308986
2022-11-15T10:44:17.340Z,9.309026
2022-11-15T10:45:17.344Z,9.309044
2022-11-15T10:46:44.477Z,9.309042
2022-11-15T10:47:19.295Z,9.309097
2022-11-15T10:48:17.319Z,9.309042
2022-11-15T10:49:17.332Z,9.309089
2022-11-15T10:50:17.304Z,9.309071
2022-11-15T10:51:17.227Z,9.309036
2022-11-15T10:52:17.216Z,9.309063
2022-11-15T10:53:17.178Z,9.309076
2022-11-15T10:54:21.003Z,9.309066
2022-11-15T10:55:18.148Z,9.309011
2022-11-15T10:56:17.147Z,9.309010
2022-11-15T10:57:17.282Z,9.308986
2022-11-15T10:58:17.286Z,9.308999
2022-11-15T10:59:17.259Z,9.308997
2022-11-15T11:00:17.320Z,9.309025
2022-11-15T11:01:17.309Z,9.309047
2022-11-15T11:02:17.111Z,9.308995
2022-11-15T11:03:17.428Z,9.308913
2022-11-15T11:04:17.237Z,9.308935
2022-11-15T11:05:17.180Z,9.308928
2022-11-15T11:06:17.320Z,9.308978
2022-11-15T11:07:17.213Z,9.308928
2022-11-15T11:08:17.172Z,9.308982
2022-11-15T11:09:17.167Z,9.309073
2022-11-15T11:10:44.237Z,9.308993
2022-11-15T11:11:19.048Z,9.308981
2022-11-15T11:12:17.099Z,9.308978
2022-11-15T11:13:17.148Z,9.308990
2022-11-15T11:14:17.147Z,9.309076
2022-11-15T11:15:17.090Z,9.309081
2022-11-15T11:16:17.208Z,9.309033
2022-11-15T11:17:17.084Z,9.309030
2022-11-15T11:18:16.984Z,9.309038
2022-11-15T11:19:17.050Z,9.309031
2022-11-15T11:20:17.052Z,9.309017
2022-11-15T11:21:16.986Z,9.309010
2022-11-15T11:22:17.182Z,9.308991
2022-11-15T11:23:17.018Z,9.308936
2022-11-15T11:24:17.073Z,9.308889
2022-11-15T11:25:17.100Z,9.308970
2022-11-15T11:26:16.999Z,9.309015
2022-11-15T11:27:17.041Z,9.309020
2022-11-15T11:28:17.030Z,9.308986
2022-11-15T11:29:16.995Z,9.308964
2022-11-15T11:30:18.098Z,9.308956
2022-11-15T11:31:17.020Z,9.308897
2022-11-15T11:32:17.073Z,9.308938
2022-11-15T11:33:17.023Z,9.308928
2022-11-15T11:34:17.044Z,9.308977
2022-11-15T11:35:17.139Z,9.309050
2022-11-15T11:38:25.832Z,9.309142
2022-11-15T11:39:25.861Z,9.309191
2022-11-15T11:40:25.872Z,9.309097
2022-11-15T11:41:25.698Z,9.309037
2022-11-15T11:42:25.640Z,9.308984
2022-11-15T11:43:25.616Z,9.308967
2022-11-15T11:44:25.620Z,9.309042
2022-11-15T11:45:25.653Z,9.308996
2022-11-15T11:46:25.628Z,9.309113
2022-11-15T11:47:25.747Z,9.309177
2022-11-15T11:48:25.700Z,9.309160
2022-11-15T11:49:25.575Z,9.309070
2022-11-15T11:50:25.734Z,9.309117
2022-11-15T11:51:25.671Z,9.309043
2022-11-15T11:52:25.649Z,9.309105
2022-11-15T11:53:25.703Z,9.309120
2022-11-15T11:54:25.745Z,9.309170
2022-11-15T11:55:25.669Z,9.309178
2022-11-15T11:56:25.738Z,9.309170
2022-11-15T11:57:25.630Z,9.309138
2022-11-15T11:58:25.625Z,9.309022
2022-11-15T11:59:25.749Z,9.309017
2022-11-15T12:00:25.618Z,9.308894
2022-11-15T12:01:25.699Z,9.308974
2022-11-15T12:02:25.576Z,9.309017
2022-11-15T12:03:25.678Z,9.309036
2022-11-15T12:04:25.607Z,9.309102